sensor_id;sensor_type;location;lat;lon;timestamp;temperature;humidity
45319;DHT22;31057;48.498;32.260;2023-04-24T00:00:11;7.40;99.90
45319;DHT22;31057;48.498;32.260;2023-04-24T00:02:16;7.40;99.90
45319;DHT22;31057;48.498;32.260;2023-04-24T00:04:18;7.40;99.90
45319;DHT22;31057;48.498;32.260;2023-04-24T00:06:20;7.50;99.90
45319;DHT22;31057;48.498;32.260;2023-04-24T00:08:25;7.50;99.90
45319;DHT22;31057;48.498;32.260;2023-04-24T00:10:27;7.50;99.90
45319;DHT22;31057;48.498;32.260;2023-04-24T00:12:29;7.50;99.90
45319;DHT22;31057;48.498;32.260;2023-04-24T00:14:31;7.50;99.90
45319;DHT22;31057;48.498;32.260;2023-04-24T00:16:33;7.40;99.90
45319;DHT22;31057;48.498;32.260;2023-04-24T00:18:35;7.40;99.90
45319;DHT22;31057;48.498;32.260;2023-04-24T00:20:37;7.20;99.90
45319;DHT22;31057;48.498;32.260;2023-04-24T00:22:39;7.00;99.90
45319;DHT22;31057;48.498;32.260;2023-04-24T00:24:41;6.60;99.90
45319;DHT22;31057;48.498;32.260;2023-04-24T00:26:43;6.50;99.90
45319;DHT22;31057;48.498;32.260;2023-04-24T00:28:45;6.30;99.90
45319;DHT22;31057;48.498;32.260;2023-04-24T00:30:47;6.30;99.90
45319;DHT22;31057;48.498;32.260;2023-04-24T00:32:49;6.40;99.90
45319;DHT22;31057;48.498;32.260;2023-04-24T00:34:51;6.40;99.90
45319;DHT22;31057;48.498;32.260;2023-04-24T00:36:53;6.40;99.90
45319;DHT22;31057;48.498;32.260;2023-04-24T00:38:55;6.40;99.90
45319;DHT22;31057;48.498;32.260;2023-04-24T00:40:56;6.40;99.90
45319;DHT22;31057;48.498;32.260;2023-04-24T00:42:58;6.50;99.90
45319;DHT22;31057;48.498;32.260;2023-04-24T00:45:01;6.60;99.90
45319;DHT22;31057;48.498;32.260;2023-04-24T00:47:05;6.70;99.90
45319;DHT22;31057;48.498;32.260;2023-04-24T00:49:07;6.60;99.90
45319;DHT22;31057;48.498;32.260;2023-04-24T00:51:09;6.40;99.90
45319;DHT22;31057;48.498;32.260;2023-04-24T00:53:11;6.30;99.90
45319;DHT22;31057;48.498;32.260;2023-04-24T00:55:13;6.30;99.90
45319;DHT22;31057;48.498;32.260;2023-04-24T00:57:15;6.20;99.90
45319;DHT22;31057;48.498;32.260;2023-04-24T00:59:17;6.20;99.90
45319;DHT22;31057;48.498;32.260;2023-04-24T01:01:20;6.30;99.90
45319;DHT22;31057;48.498;32.260;2023-04-24T01:03:29;6.20;99.90
45319;DHT22;31057;48.498;32.260;2023-04-24T01:05:35;6.30;99.90
45319;DHT22;31057;48.498;32.260;2023-04-24T01:07:38;6.30;99.90
45319;DHT22;31057;48.498;32.260;2023-04-24T01:09:41;6.30;99.90
45319;DHT22;31057;48.498;32.260;2023-04-24T01:11:46;6.20;99.90
45319;DHT22;31057;48.498;32.260;2023-04-24T01:13:48;6.20;99.90
45319;DHT22;31057;48.498;32.260;2023-04-24T01:15:50;6.10;99.90
45319;DHT22;31057;48.498;32.260;2023-04-24T01:17:52;6.00;99.90
45319;DHT22;31057;48.498;32.260;2023-04-24T01:19:54;5.90;99.90
45319;DHT22;31057;48.498;32.260;2023-04-24T01:21:58;5.90;99.90
45319;DHT22;31057;48.498;32.260;2023-04-24T01:24:04;5.80;99.90
45319;DHT22;31057;48.498;32.260;2023-04-24T01:26:07;5.90;99.90
45319;DHT22;31057;48.498;32.260;2023-04-24T01:28:09;5.90;99.90
45319;DHT22;31057;48.498;32.260;2023-04-24T01:30:11;5.90;99.90
45319;DHT22;31057;48.498;32.260;2023-04-24T01:32:14;5.90;99.90
45319;DHT22;31057;48.498;32.260;2023-04-24T01:34:15;6.00;99.90
45319;DHT22;31057;48.498;32.260;2023-04-24T01:36:19;5.90;99.90
45319;DHT22;31057;48.498;32.260;2023-04-24T01:38:21;5.90;99.90
45319;DHT22;31057;48.498;32.260;2023-04-24T01:40:23;5.80;99.90
45319;DHT22;31057;48.498;32.260;2023-04-24T01:42:25;5.90;99.90
45319;DHT22;31057;48.498;32.260;2023-04-24T01:44:28;5.90;99.90
45319;DHT22;31057;48.498;32.260;2023-04-24T01:46:30;5.90;99.90
45319;DHT22;31057;48.498;32.260;2023-04-24T01:48:33;5.90;99.90
45319;DHT22;31057;48.498;32.260;2023-04-24T01:50:35;5.90;99.90
45319;DHT22;31057;48.498;32.260;2023-04-24T01:52:37;5.70;99.90
45319;DHT22;31057;48.498;32.260;2023-04-24T01:54:39;5.70;99.90
45319;DHT22;31057;48.498;32.260;2023-04-24T01:56:42;5.60;99.90
45319;DHT22;31057;48.498;32.260;2023-04-24T01:58:44;5.60;99.90
45319;DHT22;31057;48.498;32.260;2023-04-24T02:00:46;5.50;99.90
45319;DHT22;31057;48.498;32.260;2023-04-24T02:02:48;5.50;99.90
45319;DHT22;31057;48.498;32.260;2023-04-24T02:04:50;5.50;99.90
45319;DHT22;31057;48.498;32.260;2023-04-24T02:06:52;5.40;99.90
45319;DHT22;31057;48.498;32.260;2023-04-24T02:08:54;5.50;99.90
45319;DHT22;31057;48.498;32.260;2023-04-24T02:10:56;5.50;99.90
45319;DHT22;31057;48.498;32.260;2023-04-24T02:12:58;5.50;99.90
45319;DHT22;31057;48.498;32.260;2023-04-24T02:15:01;5.70;99.90
45319;DHT22;31057;48.498;32.260;2023-04-24T02:17:03;5.70;99.90
45319;DHT22;31057;48.498;32.260;2023-04-24T02:19:05;5.60;99.90
45319;DHT22;31057;48.498;32.260;2023-04-24T02:21:07;5.60;99.90
45319;DHT22;31057;48.498;32.260;2023-04-24T02:23:09;5.70;99.90
45319;DHT22;31057;48.498;32.260;2023-04-24T02:25:11;5.70;99.90
45319;DHT22;31057;48.498;32.260;2023-04-24T02:27:13;5.70;99.90
45319;DHT22;31057;48.498;32.260;2023-04-24T02:29:15;5.70;99.90
45319;DHT22;31057;48.498;32.260;2023-04-24T02:31:17;5.60;99.90
45319;DHT22;31057;48.498;32.260;2023-04-24T02:33:19;5.50;99.90
45319;DHT22;31057;48.498;32.260;2023-04-24T02:35:21;5.50;99.90
45319;DHT22;31057;48.498;32.260;2023-04-24T02:37:23;5.40;99.90
45319;DHT22;31057;48.498;32.260;2023-04-24T02:39:25;5.50;99.90
45319;DHT22;31057;48.498;32.260;2023-04-24T02:41:27;5.50;99.90
45319;DHT22;31057;48.498;32.260;2023-04-24T02:43:34;5.50;99.90
45319;DHT22;31057;48.498;32.260;2023-04-24T02:45:36;5.60;99.90
45319;DHT22;31057;48.498;32.260;2023-04-24T02:47:39;5.60;99.90
45319;DHT22;31057;48.498;32.260;2023-04-24T02:49:41;5.60;99.90
45319;DHT22;31057;48.498;32.260;2023-04-24T02:51:44;5.60;99.90
45319;DHT22;31057;48.498;32.260;2023-04-24T02:53:46;5.60;99.90
45319;DHT22;31057;48.498;32.260;2023-04-24T02:55:48;5.60;99.90
45319;DHT22;31057;48.498;32.260;2023-04-24T02:57:49;5.70;99.90
45319;DHT22;31057;48.498;32.260;2023-04-24T02:59:51;5.70;99.90
45319;DHT22;31057;48.498;32.260;2023-04-24T03:01:53;5.70;99.90
45319;DHT22;31057;48.498;32.260;2023-04-24T03:03:55;5.70;99.90
45319;DHT22;31057;48.498;32.260;2023-04-24T03:05:57;5.80;99.90
45319;DHT22;31057;48.498;32.260;2023-04-24T03:08:00;5.90;99.90
45319;DHT22;31057;48.498;32.260;2023-04-24T03:10:02;5.90;99.90
45319;DHT22;31057;48.498;32.260;2023-04-24T03:12:04;5.90;99.90
45319;DHT22;31057;48.498;32.260;2023-04-24T03:14:06;5.90;99.90
45319;DHT22;31057;48.498;32.260;2023-04-24T03:16:08;5.90;99.90
45319;DHT22;31057;48.498;32.260;2023-04-24T03:18:10;5.90;99.90
45319;DHT22;31057;48.498;32.260;2023-04-24T03:20:12;5.80;99.90
45319;DHT22;31057;48.498;32.260;2023-04-24T03:22:14;5.70;99.90
45319;DHT22;31057;48.498;32.260;2023-04-24T03:24:16;5.70;99.90
45319;DHT22;31057;48.498;32.260;2023-04-24T03:26:18;5.70;99.90
45319;DHT22;31057;48.498;32.260;2023-04-24T03:28:21;5.70;99.90
45319;DHT22;31057;48.498;32.260;2023-04-24T03:30:23;5.80;99.90
45319;DHT22;31057;48.498;32.260;2023-04-24T03:32:25;5.80;99.90
45319;DHT22;31057;48.498;32.260;2023-04-24T03:34:27;5.80;99.90
45319;DHT22;31057;48.498;32.260;2023-04-24T03:36:28;5.80;99.90
45319;DHT22;31057;48.498;32.260;2023-04-24T03:38:31;5.80;99.90
45319;DHT22;31057;48.498;32.260;2023-04-24T03:40:33;5.80;99.90
45319;DHT22;31057;48.498;32.260;2023-04-24T03:42:35;5.80;99.90
45319;DHT22;31057;48.498;32.260;2023-04-24T03:44:39;5.80;99.90
45319;DHT22;31057;48.498;32.260;2023-04-24T03:46:41;5.80;99.90
45319;DHT22;31057;48.498;32.260;2023-04-24T03:48:43;5.90;99.90
45319;DHT22;31057;48.498;32.260;2023-04-24T03:50:45;6.10;99.90
45319;DHT22;31057;48.498;32.260;2023-04-24T03:52:47;6.10;99.90
45319;DHT22;31057;48.498;32.260;2023-04-24T03:54:49;6.20;99.90
45319;DHT22;31057;48.498;32.260;2023-04-24T03:56:51;6.20;99.90
45319;DHT22;31057;48.498;32.260;2023-04-24T03:58:53;6.30;99.90
45319;DHT22;31057;48.498;32.260;2023-04-24T04:00:55;6.40;99.90
45319;DHT22;31057;48.498;32.260;2023-04-24T04:03:00;6.40;99.90
45319;DHT22;31057;48.498;32.260;2023-04-24T04:05:02;6.50;99.90
45319;DHT22;31057;48.498;32.260;2023-04-24T04:07:04;6.60;99.90
45319;DHT22;31057;48.498;32.260;2023-04-24T04:09:06;6.70;99.90
45319;DHT22;31057;48.498;32.260;2023-04-24T04:11:10;6.80;99.90
45319;DHT22;31057;48.498;32.260;2023-04-24T04:13:12;6.80;99.90
45319;DHT22;31057;48.498;32.260;2023-04-24T04:15:14;6.80;99.90
45319;DHT22;31057;48.498;32.260;2023-04-24T04:17:15;6.80;99.90
45319;DHT22;31057;48.498;32.260;2023-04-24T04:19:17;6.90;99.90
45319;DHT22;31057;48.498;32.260;2023-04-24T04:21:19;7.00;99.90
45319;DHT22;31057;48.498;32.260;2023-04-24T04:23:21;7.00;99.90
45319;DHT22;31057;48.498;32.260;2023-04-24T04:25:23;6.90;99.90
45319;DHT22;31057;48.498;32.260;2023-04-24T04:27:25;7.10;99.90
45319;DHT22;31057;48.498;32.260;2023-04-24T04:29:28;7.20;99.90
45319;DHT22;31057;48.498;32.260;2023-04-24T04:31:30;7.20;99.90
45319;DHT22;31057;48.498;32.260;2023-04-24T04:33:32;7.40;99.90
45319;DHT22;31057;48.498;32.260;2023-04-24T04:35:34;7.40;99.90
45319;DHT22;31057;48.498;32.260;2023-04-24T04:37:36;7.60;99.90
45319;DHT22;31057;48.498;32.260;2023-04-24T04:39:38;7.80;99.90
45319;DHT22;31057;48.498;32.260;2023-04-24T04:41:40;7.80;99.90
45319;DHT22;31057;48.498;32.260;2023-04-24T04:43:42;7.90;99.90
45319;DHT22;31057;48.498;32.260;2023-04-24T04:45:44;8.10;99.90
45319;DHT22;31057;48.498;32.260;2023-04-24T04:47:46;8.20;99.90
45319;DHT22;31057;48.498;32.260;2023-04-24T04:49:48;8.10;99.90
45319;DHT22;31057;48.498;32.260;2023-04-24T04:51:50;8.30;99.90
45319;DHT22;31057;48.498;32.260;2023-04-24T04:53:53;8.20;99.90
45319;DHT22;31057;48.498;32.260;2023-04-24T04:55:55;8.30;99.90
45319;DHT22;31057;48.498;32.260;2023-04-24T04:57:56;8.30;99.90
45319;DHT22;31057;48.498;32.260;2023-04-24T04:59:58;8.30;99.90
45319;DHT22;31057;48.498;32.260;2023-04-24T05:02:00;8.40;99.90
45319;DHT22;31057;48.498;32.260;2023-04-24T05:04:02;8.50;99.90
45319;DHT22;31057;48.498;32.260;2023-04-24T05:06:05;8.50;99.90
45319;DHT22;31057;48.498;32.260;2023-04-24T05:08:07;8.70;99.90
45319;DHT22;31057;48.498;32.260;2023-04-24T05:10:26;8.80;99.90
45319;DHT22;31057;48.498;32.260;2023-04-24T05:12:28;8.90;99.90
45319;DHT22;31057;48.498;32.260;2023-04-24T05:14:30;9.10;99.90
45319;DHT22;31057;48.498;32.260;2023-04-24T05:16:32;9.20;99.90
45319;DHT22;31057;48.498;32.260;2023-04-24T05:18:34;9.30;99.90
45319;DHT22;31057;48.498;32.260;2023-04-24T05:20:36;9.30;99.90
45319;DHT22;31057;48.498;32.260;2023-04-24T05:22:38;9.20;99.90
45319;DHT22;31057;48.498;32.260;2023-04-24T05:24:40;9.40;99.90
45319;DHT22;31057;48.498;32.260;2023-04-24T05:26:42;9.60;99.90
45319;DHT22;31057;48.498;32.260;2023-04-24T05:28:43;9.50;99.90
45319;DHT22;31057;48.498;32.260;2023-04-24T05:30:46;9.50;99.90
45319;DHT22;31057;48.498;32.260;2023-04-24T05:32:48;9.40;99.90
45319;DHT22;31057;48.498;32.260;2023-04-24T05:34:50;9.50;99.90
45319;DHT22;31057;48.498;32.260;2023-04-24T05:36:52;9.50;99.90
45319;DHT22;31057;48.498;32.260;2023-04-24T05:38:54;9.50;99.90
45319;DHT22;31057;48.498;32.260;2023-04-24T05:40:57;9.60;99.90
45319;DHT22;31057;48.498;32.260;2023-04-24T05:42:59;9.70;99.90
45319;DHT22;31057;48.498;32.260;2023-04-24T05:45:01;9.90;99.90
45319;DHT22;31057;48.498;32.260;2023-04-24T05:47:02;9.80;99.90
45319;DHT22;31057;48.498;32.260;2023-04-24T05:49:04;9.80;99.90
45319;DHT22;31057;48.498;32.260;2023-04-24T05:51:07;9.70;99.90
45319;DHT22;31057;48.498;32.260;2023-04-24T05:53:09;9.80;99.90
45319;DHT22;31057;48.498;32.260;2023-04-24T05:55:14;10.00;99.90
45319;DHT22;31057;48.498;32.260;2023-04-24T06:00:19;10.10;99.90
45319;DHT22;31057;48.498;32.260;2023-04-24T06:02:24;10.20;99.90
45319;DHT22;31057;48.498;32.260;2023-04-24T06:04:26;10.10;99.90
45319;DHT22;31057;48.498;32.260;2023-04-24T06:06:28;10.10;99.90
45319;DHT22;31057;48.498;32.260;2023-04-24T06:08:30;10.20;99.90
45319;DHT22;31057;48.498;32.260;2023-04-24T06:10:32;10.30;99.90
45319;DHT22;31057;48.498;32.260;2023-04-24T06:12:34;10.30;99.90
45319;DHT22;31057;48.498;32.260;2023-04-24T06:14:37;10.50;99.90
45319;DHT22;31057;48.498;32.260;2023-04-24T06:16:41;10.60;99.90
45319;DHT22;31057;48.498;32.260;2023-04-24T06:18:43;10.60;99.90
45319;DHT22;31057;48.498;32.260;2023-04-24T06:20:47;10.70;99.90
45319;DHT22;31057;48.498;32.260;2023-04-24T06:22:48;10.80;99.90
45319;DHT22;31057;48.498;32.260;2023-04-24T06:24:50;10.90;99.90
45319;DHT22;31057;48.498;32.260;2023-04-24T06:26:52;11.00;99.90
45319;DHT22;31057;48.498;32.260;2023-04-24T06:28:54;11.10;99.90
45319;DHT22;31057;48.498;32.260;2023-04-24T06:30:56;11.10;99.90
45319;DHT22;31057;48.498;32.260;2023-04-24T06:32:58;11.20;99.90
45319;DHT22;31057;48.498;32.260;2023-04-24T06:35:13;11.40;99.90
45319;DHT22;31057;48.498;32.260;2023-04-24T06:37:15;11.50;99.90
45319;DHT22;31057;48.498;32.260;2023-04-24T06:39:17;11.60;99.90
45319;DHT22;31057;48.498;32.260;2023-04-24T06:41:19;11.60;99.90
45319;DHT22;31057;48.498;32.260;2023-04-24T06:43:21;11.70;99.90
45319;DHT22;31057;48.498;32.260;2023-04-24T06:45:23;11.80;99.90
45319;DHT22;31057;48.498;32.260;2023-04-24T06:47:25;11.70;99.90
45319;DHT22;31057;48.498;32.260;2023-04-24T06:49:27;11.60;99.90
45319;DHT22;31057;48.498;32.260;2023-04-24T06:51:29;11.70;99.90
45319;DHT22;31057;48.498;32.260;2023-04-24T06:53:32;11.70;99.90
45319;DHT22;31057;48.498;32.260;2023-04-24T06:55:35;11.90;99.90
45319;DHT22;31057;48.498;32.260;2023-04-24T06:57:37;12.00;99.90
45319;DHT22;31057;48.498;32.260;2023-04-24T06:59:39;12.30;99.90
45319;DHT22;31057;48.498;32.260;2023-04-24T07:01:41;12.50;99.90
45319;DHT22;31057;48.498;32.260;2023-04-24T07:03:43;12.50;99.90
45319;DHT22;31057;48.498;32.260;2023-04-24T07:05:46;12.70;99.90
45319;DHT22;31057;48.498;32.260;2023-04-24T07:07:49;13.10;99.90
45319;DHT22;31057;48.498;32.260;2023-04-24T07:09:52;13.20;99.90
45319;DHT22;31057;48.498;32.260;2023-04-24T07:11:54;13.80;99.90
45319;DHT22;31057;48.498;32.260;2023-04-24T07:13:58;13.70;99.90
45319;DHT22;31057;48.498;32.260;2023-04-24T07:16:00;13.90;99.90
45319;DHT22;31057;48.498;32.260;2023-04-24T07:18:02;14.10;99.90
45319;DHT22;31057;48.498;32.260;2023-04-24T07:20:06;14.20;99.90
45319;DHT22;31057;48.498;32.260;2023-04-24T07:22:10;14.50;99.90
45319;DHT22;31057;48.498;32.260;2023-04-24T07:24:18;14.50;99.90
45319;DHT22;31057;48.498;32.260;2023-04-24T07:26:23;14.80;99.90
45319;DHT22;31057;48.498;32.260;2023-04-24T07:28:25;15.20;99.90
45319;DHT22;31057;48.498;32.260;2023-04-24T07:30:27;15.10;99.90
45319;DHT22;31057;48.498;32.260;2023-04-24T07:32:34;15.30;99.90
45319;DHT22;31057;48.498;32.260;2023-04-24T07:34:36;15.50;99.90
45319;DHT22;31057;48.498;32.260;2023-04-24T07:36:38;15.60;99.90
45319;DHT22;31057;48.498;32.260;2023-04-24T07:38:41;15.70;99.90
45319;DHT22;31057;48.498;32.260;2023-04-24T07:40:43;15.90;99.90
45319;DHT22;31057;48.498;32.260;2023-04-24T07:42:46;16.10;99.90
45319;DHT22;31057;48.498;32.260;2023-04-24T07:44:50;16.50;99.90
45319;DHT22;31057;48.498;32.260;2023-04-24T07:46:52;16.20;99.90
45319;DHT22;31057;48.498;32.260;2023-04-24T07:48:55;15.90;99.90
45319;DHT22;31057;48.498;32.260;2023-04-24T07:51:14;16.10;99.90
45319;DHT22;31057;48.498;32.260;2023-04-24T07:53:16;16.50;99.90
45319;DHT22;31057;48.498;32.260;2023-04-24T07:55:18;17.00;99.90
45319;DHT22;31057;48.498;32.260;2023-04-24T07:57:23;17.10;99.90
45319;DHT22;31057;48.498;32.260;2023-04-24T07:59:25;17.00;99.90
45319;DHT22;31057;48.498;32.260;2023-04-24T08:01:27;16.80;99.90
45319;DHT22;31057;48.498;32.260;2023-04-24T08:03:29;17.10;99.90
45319;DHT22;31057;48.498;32.260;2023-04-24T08:05:32;17.20;99.90
45319;DHT22;31057;48.498;32.260;2023-04-24T08:07:34;17.20;99.90
45319;DHT22;31057;48.498;32.260;2023-04-24T08:09:37;17.00;99.90
45319;DHT22;31057;48.498;32.260;2023-04-24T08:11:39;16.80;99.90
45319;DHT22;31057;48.498;32.260;2023-04-24T08:13:41;16.80;99.90
45319;DHT22;31057;48.498;32.260;2023-04-24T08:15:43;16.50;99.90
45319;DHT22;31057;48.498;32.260;2023-04-24T08:17:45;16.70;99.90
45319;DHT22;31057;48.498;32.260;2023-04-24T08:19:46;16.60;99.90
45319;DHT22;31057;48.498;32.260;2023-04-24T08:21:52;17.00;99.90
45319;DHT22;31057;48.498;32.260;2023-04-24T08:23:54;17.10;99.90
45319;DHT22;31057;48.498;32.260;2023-04-24T08:25:56;17.20;99.90
45319;DHT22;31057;48.498;32.260;2023-04-24T08:27:59;17.40;99.90
45319;DHT22;31057;48.498;32.260;2023-04-24T08:30:01;17.50;99.90
45319;DHT22;31057;48.498;32.260;2023-04-24T08:32:03;17.20;99.90
45319;DHT22;31057;48.498;32.260;2023-04-24T08:34:05;17.60;99.90
45319;DHT22;31057;48.498;32.260;2023-04-24T08:36:07;17.70;99.90
45319;DHT22;31057;48.498;32.260;2023-04-24T08:38:09;17.90;99.90
45319;DHT22;31057;48.498;32.260;2023-04-24T08:40:16;17.80;99.90
45319;DHT22;31057;48.498;32.260;2023-04-24T08:42:19;17.70;99.90
45319;DHT22;31057;48.498;32.260;2023-04-24T08:44:21;17.60;99.90
45319;DHT22;31057;48.498;32.260;2023-04-24T08:46:24;17.60;99.90
45319;DHT22;31057;48.498;32.260;2023-04-24T08:48:27;18.00;99.90
45319;DHT22;31057;48.498;32.260;2023-04-24T08:50:32;17.90;99.90
45319;DHT22;31057;48.498;32.260;2023-04-24T08:52:35;18.20;99.90
45319;DHT22;31057;48.498;32.260;2023-04-24T08:54:38;18.30;99.90
45319;DHT22;31057;48.498;32.260;2023-04-24T08:56:44;18.40;99.90
45319;DHT22;31057;48.498;32.260;2023-04-24T08:58:46;18.70;99.90
45319;DHT22;31057;48.498;32.260;2023-04-24T09:00:49;18.60;99.90
45319;DHT22;31057;48.498;32.260;2023-04-24T09:02:53;18.40;99.90
45319;DHT22;31057;48.498;32.260;2023-04-24T09:04:55;18.80;99.90
45319;DHT22;31057;48.498;32.260;2023-04-24T09:06:58;18.80;99.90
45319;DHT22;31057;48.498;32.260;2023-04-24T09:09:01;18.70;99.90
45319;DHT22;31057;48.498;32.260;2023-04-24T09:11:04;18.20;99.90
45319;DHT22;31057;48.498;32.260;2023-04-24T09:13:06;17.70;99.90
45319;DHT22;31057;48.498;32.260;2023-04-24T09:15:11;17.80;99.90
45319;DHT22;31057;48.498;32.260;2023-04-24T09:17:13;18.00;99.90
45319;DHT22;31057;48.498;32.260;2023-04-24T09:19:15;18.20;99.90
45319;DHT22;31057;48.498;32.260;2023-04-24T09:21:17;17.90;99.90
45319;DHT22;31057;48.498;32.260;2023-04-24T09:23:18;17.70;99.90
45319;DHT22;31057;48.498;32.260;2023-04-24T09:25:21;17.90;99.90
45319;DHT22;31057;48.498;32.260;2023-04-24T09:27:23;17.90;99.90
45319;DHT22;31057;48.498;32.260;2023-04-24T09:29:25;17.80;99.90
45319;DHT22;31057;48.498;32.260;2023-04-24T09:31:28;18.20;99.90
45319;DHT22;31057;48.498;32.260;2023-04-24T09:33:31;18.70;99.90
45319;DHT22;31057;48.498;32.260;2023-04-24T09:35:33;19.00;99.90
45319;DHT22;31057;48.498;32.260;2023-04-24T09:37:36;19.30;99.90
45319;DHT22;31057;48.498;32.260;2023-04-24T09:39:39;19.40;99.90
45319;DHT22;31057;48.498;32.260;2023-04-24T09:43:47;19.10;99.90
45319;DHT22;31057;48.498;32.260;2023-04-24T09:45:49;19.30;99.90
45319;DHT22;31057;48.498;32.260;2023-04-24T09:47:58;19.30;99.90
45319;DHT22;31057;48.498;32.260;2023-04-24T09:50:15;19.40;99.90
45319;DHT22;31057;48.498;32.260;2023-04-24T09:52:19;19.20;99.90
45319;DHT22;31057;48.498;32.260;2023-04-24T09:54:21;19.30;99.90
45319;DHT22;31057;48.498;32.260;2023-04-24T09:56:25;19.10;99.90
45319;DHT22;31057;48.498;32.260;2023-04-24T09:58:29;18.90;99.90
45319;DHT22;31057;48.498;32.260;2023-04-24T10:00:32;19.10;99.90
45319;DHT22;31057;48.498;32.260;2023-04-24T10:02:34;19.00;99.90
45319;DHT22;31057;48.498;32.260;2023-04-24T10:04:37;19.10;99.90
45319;DHT22;31057;48.498;32.260;2023-04-24T10:06:39;19.00;99.90
45319;DHT22;31057;48.498;32.260;2023-04-24T10:08:44;19.10;99.90
45319;DHT22;31057;48.498;32.260;2023-04-24T10:10:47;18.90;99.90
45319;DHT22;31057;48.498;32.260;2023-04-24T10:12:51;18.60;99.90
45319;DHT22;31057;48.498;32.260;2023-04-24T10:14:53;18.80;99.90
45319;DHT22;31057;48.498;32.260;2023-04-24T10:16:55;19.20;99.90
45319;DHT22;31057;48.498;32.260;2023-04-24T10:19:01;19.40;99.90
45319;DHT22;31057;48.498;32.260;2023-04-24T10:21:05;19.50;99.90
45319;DHT22;31057;48.498;32.260;2023-04-24T10:23:07;19.70;99.90
45319;DHT22;31057;48.498;32.260;2023-04-24T10:25:09;19.70;99.90
45319;DHT22;31057;48.498;32.260;2023-04-24T10:27:13;19.50;99.90
45319;DHT22;31057;48.498;32.260;2023-04-24T10:29:19;19.10;99.90
45319;DHT22;31057;48.498;32.260;2023-04-24T10:31:21;18.60;99.90
45319;DHT22;31057;48.498;32.260;2023-04-24T10:33:24;18.30;99.90
45319;DHT22;31057;48.498;32.260;2023-04-24T10:35:26;18.30;99.90
45319;DHT22;31057;48.498;32.260;2023-04-24T10:37:37;18.60;99.90
45319;DHT22;31057;48.498;32.260;2023-04-24T10:39:40;18.60;99.90
45319;DHT22;31057;48.498;32.260;2023-04-24T10:41:42;19.10;99.90
45319;DHT22;31057;48.498;32.260;2023-04-24T10:43:45;19.30;99.90
45319;DHT22;31057;48.498;32.260;2023-04-24T10:46:04;19.50;99.90
45319;DHT22;31057;48.498;32.260;2023-04-24T10:48:08;19.50;99.90
45319;DHT22;31057;48.498;32.260;2023-04-24T10:50:15;19.90;99.90
45319;DHT22;31057;48.498;32.260;2023-04-24T10:52:17;20.00;99.90
45319;DHT22;31057;48.498;32.260;2023-04-24T10:54:23;20.50;99.90
45319;DHT22;31057;48.498;32.260;2023-04-24T10:56:26;20.10;99.90
45319;DHT22;31057;48.498;32.260;2023-04-24T10:58:44;19.60;99.90
45319;DHT22;31057;48.498;32.260;2023-04-24T11:00:58;19.50;99.90
45319;DHT22;31057;48.498;32.260;2023-04-24T11:03:05;19.60;99.90
45319;DHT22;31057;48.498;32.260;2023-04-24T11:05:07;19.70;99.90
45319;DHT22;31057;48.498;32.260;2023-04-24T11:07:10;19.90;99.90
45319;DHT22;31057;48.498;32.260;2023-04-24T11:09:15;19.50;99.90
45319;DHT22;31057;48.498;32.260;2023-04-24T11:11:18;19.30;99.90
45319;DHT22;31057;48.498;32.260;2023-04-24T11:13:24;19.50;99.90
45319;DHT22;31057;48.498;32.260;2023-04-24T11:15:26;19.80;99.90
45319;DHT22;31057;48.498;32.260;2023-04-24T11:17:33;20.40;99.90
45319;DHT22;31057;48.498;32.260;2023-04-24T11:19:35;20.30;99.90
45319;DHT22;31057;48.498;32.260;2023-04-24T11:23:53;19.80;99.90
45319;DHT22;31057;48.498;32.260;2023-04-24T11:26:18;19.70;99.90
45319;DHT22;31057;48.498;32.260;2023-04-24T11:28:20;20.40;99.90
45319;DHT22;31057;48.498;32.260;2023-04-24T11:30:29;20.60;99.90
45319;DHT22;31057;48.498;32.260;2023-04-24T11:34:34;21.30;99.90
45319;DHT22;31057;48.498;32.260;2023-04-24T11:36:46;21.50;99.90
45319;DHT22;31057;48.498;32.260;2023-04-24T11:38:48;21.20;99.90
45319;DHT22;31057;48.498;32.260;2023-04-24T11:40:51;21.30;99.90
45319;DHT22;31057;48.498;32.260;2023-04-24T11:42:54;21.10;99.90
45319;DHT22;31057;48.498;32.260;2023-04-24T11:44:59;20.40;99.90
45319;DHT22;31057;48.498;32.260;2023-04-24T11:47:06;20.40;99.90
45319;DHT22;31057;48.498;32.260;2023-04-24T11:49:12;20.40;99.90
45319;DHT22;31057;48.498;32.260;2023-04-24T11:51:14;20.50;99.90
45319;DHT22;31057;48.498;32.260;2023-04-24T11:53:19;20.30;99.90
45319;DHT22;31057;48.498;32.260;2023-04-24T11:55:23;20.20;99.90
45319;DHT22;31057;48.498;32.260;2023-04-24T11:57:27;20.70;99.90
45319;DHT22;31057;48.498;32.260;2023-04-24T11:59:37;20.70;99.90
45319;DHT22;31057;48.498;32.260;2023-04-24T12:01:46;20.50;99.90
45319;DHT22;31057;48.498;32.260;2023-04-24T12:03:50;20.60;99.90
45319;DHT22;31057;48.498;32.260;2023-04-24T12:06:10;20.60;99.90
45319;DHT22;31057;48.498;32.260;2023-04-24T12:08:27;20.20;99.90
45319;DHT22;31057;48.498;32.260;2023-04-24T12:10:31;19.70;99.90
45319;DHT22;31057;48.498;32.260;2023-04-24T12:12:33;19.70;99.90
45319;DHT22;31057;48.498;32.260;2023-04-24T12:14:49;19.40;99.90
45319;DHT22;31057;48.498;32.260;2023-04-24T12:16:51;19.50;99.90
45319;DHT22;31057;48.498;32.260;2023-04-24T12:18:53;19.60;99.90
45319;DHT22;31057;48.498;32.260;2023-04-24T12:20:55;19.50;99.90
45319;DHT22;31057;48.498;32.260;2023-04-24T12:23:16;20.00;99.90
45319;DHT22;31057;48.498;32.260;2023-04-24T12:25:19;20.20;99.90
45319;DHT22;31057;48.498;32.260;2023-04-24T12:27:22;20.00;99.90
45319;DHT22;31057;48.498;32.260;2023-04-24T12:29:24;19.80;99.90
45319;DHT22;31057;48.498;32.260;2023-04-24T12:31:27;19.80;99.90
45319;DHT22;31057;48.498;32.260;2023-04-24T12:33:35;20.10;99.90
45319;DHT22;31057;48.498;32.260;2023-04-24T12:35:37;20.20;99.90
45319;DHT22;31057;48.498;32.260;2023-04-24T12:37:42;19.80;99.90
45319;DHT22;31057;48.498;32.260;2023-04-24T12:42:04;19.60;99.90
45319;DHT22;31057;48.498;32.260;2023-04-24T12:44:10;19.50;99.90
45319;DHT22;31057;48.498;32.260;2023-04-24T12:46:14;19.30;99.90
45319;DHT22;31057;48.498;32.260;2023-04-24T12:48:19;18.80;99.90
45319;DHT22;31057;48.498;32.260;2023-04-24T12:50:22;18.80;99.90
45319;DHT22;31057;48.498;32.260;2023-04-24T12:52:24;19.10;99.90
45319;DHT22;31057;48.498;32.260;2023-04-24T12:54:32;19.70;99.90
45319;DHT22;31057;48.498;32.260;2023-04-24T12:56:34;19.90;99.90
45319;DHT22;31057;48.498;32.260;2023-04-24T12:58:38;19.90;99.90
45319;DHT22;31057;48.498;32.260;2023-04-24T13:00:39;20.00;99.90
45319;DHT22;31057;48.498;32.260;2023-04-24T13:02:45;19.80;99.90